createdAt,value
2022-10-11T00:00:34.603Z,101567.63
2022-10-11T00:03:02.428Z,101566.16
2022-10-11T00:05:31.813Z,101572.38
2022-10-11T00:07:59.650Z,101581.06
2022-10-11T00:10:27.671Z,101572.28
2022-10-11T00:12:55.451Z,101575.78
2022-10-11T00:15:23.816Z,101571.13
2022-10-11T00:17:51.645Z,101577.91
2022-10-11T00:20:19.654Z,101580.03
2022-10-11T00:22:50.039Z,101582.78
2022-10-11T00:25:18.349Z,101582.38
2022-10-11T00:27:46.200Z,101575.19
2022-10-11T00:30:14.888Z,101593.81
2022-10-11T00:32:42.575Z,101591.06
2022-10-11T00:35:10.856Z,101589.38
2022-10-11T00:37:39.936Z,101590.75
2022-10-11T00:40:13.611Z,101580.91
2022-10-11T00:42:41.375Z,101588.09
2022-10-11T00:45:46.353Z,101591.50
2022-10-11T00:48:22.215Z,101590.75
2022-10-11T00:50:50.662Z,101591.22
2022-10-11T00:53:18.416Z,101593.97
2022-10-11T00:55:52.437Z,101597.66
2022-10-11T00:58:21.563Z,101594.38
2022-10-11T01:00:49.412Z,101601.69
2022-10-11T01:03:20.971Z,101598.50
2022-10-11T01:05:48.908Z,101598.28
2022-10-11T01:08:16.907Z,101592.25
2022-10-11T01:10:44.690Z,101589.84
2022-10-11T01:13:26.738Z,101597.13
2022-10-11T01:16:03.443Z,101590.03
2022-10-11T01:18:36.409Z,101593.44
2022-10-11T01:21:13.831Z,101588.97
2022-10-11T01:24:08.694Z,101594.28
2022-10-11T01:27:11.471Z,101600.63
2022-10-11T01:29:51.203Z,101598.63
2022-10-11T01:32:28.404Z,101603.91
2022-10-11T01:35:00.560Z,101599.59
2022-10-11T01:37:33.765Z,101606.31
2022-10-11T01:40:06.986Z,101606.56
2022-10-11T01:42:37.055Z,101597.25
2022-10-11T01:45:06.612Z,101615.44
2022-10-11T01:47:35.674Z,101610.25
2022-10-11T01:50:03.679Z,101616.50
2022-10-11T01:52:35.018Z,101617.53
2022-10-11T01:55:18.316Z,101620.94
2022-10-11T01:57:59.303Z,101616.69
2022-10-11T02:00:32.702Z,101620.50
2022-10-11T02:03:12.436Z,101623.25
2022-10-11T02:05:46.247Z,101621.56
2022-10-11T02:08:20.597Z,101590.41
2022-10-11T02:10:53.528Z,101616.59
2022-10-11T02:13:27.883Z,101620.28
2022-10-11T02:15:59.355Z,101619.75
2022-10-11T02:18:34.150Z,101622.63
2022-10-11T02:21:04.986Z,101628.13
2022-10-11T02:23:37.948Z,101623.59
2022-10-11T02:26:08.137Z,101623.44
2022-10-11T02:28:40.087Z,101620.81
2022-10-11T02:31:09.262Z,101621.75
2022-10-11T02:33:41.408Z,101627.25
2022-10-11T02:36:14.181Z,101621.13
2022-10-11T02:38:48.726Z,101633.16
2022-10-11T02:41:22.608Z,101634.00
2022-10-11T02:43:57.311Z,101633.03
2022-10-11T02:46:26.181Z,101633.16
2022-10-11T02:48:55.323Z,101639.06
2022-10-11T02:51:23.046Z,101638.97
2022-10-11T02:53:50.764Z,101649.63
2022-10-11T02:56:18.483Z,101639.25
2022-10-11T02:58:46.504Z,101641.25
2022-10-11T03:01:14.423Z,101642.28
2022-10-11T03:03:42.302Z,101642.63
2022-10-11T03:06:11.538Z,101646.28
2022-10-11T03:08:39.282Z,101648.19
2022-10-11T03:11:07.112Z,101638.97
2022-10-11T03:13:34.812Z,101652.72
2022-10-11T03:16:07.311Z,101656.31
2022-10-11T03:18:35.289Z,101665.25
2022-10-11T03:21:02.974Z,101659.03
2022-10-11T03:23:32.135Z,101663.06
2022-10-11T03:26:00.020Z,101666.94
2022-10-11T03:28:28.137Z,101665.97
2022-10-11T03:30:55.982Z,101666.94
2022-10-11T03:33:23.856Z,101670.44
2022-10-11T03:35:51.566Z,101671.19
2022-10-11T03:38:22.148Z,101672.97
2022-10-11T03:40:52.171Z,101628.13
2022-10-11T03:43:20.347Z,101673.81
2022-10-11T03:45:48.162Z,101681.19
2022-10-11T03:48:16.171Z,101676.31
2022-10-11T03:50:43.967Z,101672.28
2022-10-11T03:53:11.806Z,101680.09
2022-10-11T03:55:40.959Z,101671.00
2022-10-11T03:58:10.420Z,101684.81
2022-10-11T04:00:38.687Z,101676.53
2022-10-11T04:03:06.405Z,101682.53
2022-10-11T04:05:34.130Z,101682.19
2022-10-11T04:08:02.107Z,101682.84
2022-10-11T04:10:31.063Z,101685.19
2022-10-11T04:12:58.829Z,101677.56
2022-10-11T04:15:27.927Z,101683.63
2022-10-11T04:17:55.633Z,101688.25
2022-10-11T04:20:23.360Z,101688.31
2022-10-11T04:22:51.262Z,101701.00
2022-10-11T04:25:19.147Z,101693.84
2022-10-11T04:27:46.858Z,101699.03
2022-10-11T04:30:15.389Z,101700.41
2022-10-11T04:32:45.059Z,101704.25
2022-10-11T04:35:13.175Z,101702.38
2022-10-11T04:37:40.885Z,101706.94
2022-10-11T04:40:10.203Z,101706.41
2022-10-11T04:42:37.956Z,101707.28
2022-10-11T04:45:06.700Z,101708.78
2022-10-11T04:47:34.442Z,101706.88
2022-10-11T04:50:03.971Z,101709.41
2022-10-11T04:52:31.755Z,101712.72
2022-10-11T04:54:59.423Z,101710.06
2022-10-11T04:57:27.142Z,101713.47
2022-10-11T04:59:54.834Z,101712.28
2022-10-11T05:02:22.687Z,101706.91
2022-10-11T05:04:51.093Z,101713.88
2022-10-11T05:07:20.148Z,101700.56
2022-10-11T05:09:47.865Z,101707.75
2022-10-11T05:12:15.591Z,101705.09
2022-10-11T05:14:43.287Z,101714.72
2022-10-11T05:17:10.957Z,101718.97
2022-10-11T05:19:38.625Z,101725.09
2022-10-11T05:22:06.827Z,101719.06
2022-10-11T05:24:38.647Z,101709.31
2022-10-11T05:27:06.695Z,101737.16
2022-10-11T05:29:34.437Z,101733.34
2022-10-11T05:32:02.142Z,101743.91
2022-10-11T05:34:29.878Z,101741.06
2022-10-11T05:36:57.944Z,101746.53
2022-10-11T05:39:25.668Z,101745.69
2022-10-11T05:41:54.694Z,101755.78
2022-10-11T05:44:22.398Z,101759.34
2022-10-11T05:46:50.079Z,101750.88
2022-10-11T05:49:17.761Z,101755.78
2022-10-11T05:51:45.606Z,101755.56
2022-10-11T05:54:15.927Z,101742.22
2022-10-11T05:56:43.991Z,101760.84
2022-10-11T05:59:13.348Z,101762.56
2022-10-11T06:01:46.929Z,101750.50
2022-10-11T06:04:19.927Z,101742.97
2022-10-11T06:06:47.631Z,101765.72
2022-10-11T06:09:15.643Z,101751.84
2022-10-11T06:11:44.209Z,101771.63
2022-10-11T06:14:15.330Z,101745.38
2022-10-11T06:16:45.389Z,101763.47
2022-10-11T06:19:13.127Z,101787.78
2022-10-11T06:21:40.841Z,101788.63
2022-10-11T06:24:09.375Z,101785.16
2022-10-11T06:26:37.152Z,101805.25
2022-10-11T06:29:05.007Z,101800.16
2022-10-11T06:31:34.496Z,101805.53
2022-10-11T06:34:02.299Z,101807.38
2022-10-11T06:36:30.027Z,101806.28
2022-10-11T06:39:00.872Z,101810.09
2022-10-11T06:41:30.646Z,101812.75
2022-10-11T06:43:58.713Z,101812.94
2022-10-11T06:46:28.543Z,101811.81
2022-10-11T06:48:57.586Z,101817.94
2022-10-11T06:51:25.781Z,101821.75
2022-10-11T06:53:56.626Z,101822.03
2022-10-11T06:56:25.875Z,101805.03
2022-10-11T06:58:54.787Z,101827.22
2022-10-11T07:01:23.807Z,101815.16
2022-10-11T07:03:53.152Z,101823.25
2022-10-11T07:06:24.568Z,101836.13
2022-10-11T07:08:52.762Z,101837.09
2022-10-11T07:11:21.919Z,101848.50
2022-10-11T07:13:51.587Z,101845.66
2022-10-11T07:16:20.928Z,101845.16
2022-10-11T07:18:49.490Z,101856.13
2022-10-11T07:21:20.112Z,101859.72
2022-10-11T07:23:49.235Z,101862.06
2022-10-11T07:26:17.260Z,101865.75
2022-10-11T07:28:45.863Z,101862.38
2022-10-11T07:31:16.696Z,101861.13
2022-10-11T07:33:44.386Z,101868.09
2022-10-11T07:36:13.761Z,101870.56
2022-10-11T07:38:42.299Z,101870.47
2022-10-11T07:41:11.597Z,101869.50
2022-10-11T07:43:40.140Z,101866.78
2022-10-11T07:46:08.610Z,101866.16
2022-10-11T07:48:38.141Z,101868.84
2022-10-11T07:51:10.345Z,101871.50
2022-10-11T07:53:42.411Z,101879.13
2022-10-11T07:56:13.466Z,101876.41
2022-10-11T07:58:41.872Z,101886.13
2022-10-11T08:01:10.777Z,101874.59
2022-10-11T08:03:54.865Z,101870.91
2022-10-11T08:06:26.302Z,101878.44
2022-10-11T08:08:54.442Z,101878.13
2022-10-11T08:11:26.342Z,101878.22
2022-10-11T08:13:54.608Z,101889.16
2022-10-11T08:16:22.729Z,101891.78
2022-10-11T08:18:50.573Z,101889.03
2022-10-11T08:21:19.271Z,101889.16
2022-10-11T08:23:47.038Z,101896.97
2022-10-11T08:26:15.360Z,101897.81
2022-10-11T08:28:44.537Z,101895.09
2022-10-11T08:31:14.762Z,101896.53
2022-10-11T08:33:42.718Z,101895.59
2022-10-11T08:36:11.145Z,101896.69
2022-10-11T08:38:39.545Z,101900.78
2022-10-11T08:41:24.723Z,101902.91
2022-10-11T08:44:02.503Z,101902.38
2022-10-11T08:46:33.613Z,101903.13
2022-10-11T08:49:02.809Z,101907.38
2022-10-11T08:51:33.072Z,101908.22
2022-10-11T08:54:07.751Z,101905.47
2022-10-11T08:56:38.739Z,101903.56
2022-10-11T08:59:21.994Z,101903.78
2022-10-11T09:01:55.787Z,101892.56
2022-10-11T09:04:23.547Z,101907.69
2022-10-11T09:07:04.576Z,101905.69
2022-10-11T09:10:00.008Z,101909.72
2022-10-11T09:12:40.983Z,101907.38
2022-10-11T09:15:20.068Z,101910.47
2022-10-11T09:18:09.383Z,101907.19
2022-10-11T09:20:57.144Z,101909.94
2022-10-11T09:23:39.749Z,101905.47
2022-10-11T09:26:14.283Z,101909.63
2022-10-11T09:28:51.465Z,101911.41
2022-10-11T09:31:20.664Z,101908.44
2022-10-11T09:33:50.316Z,101908.13
2022-10-11T09:36:23.642Z,101912.78
2022-10-11T09:39:01.836Z,101911.63
2022-10-11T09:41:39.476Z,101907.38
2022-10-11T09:44:08.503Z,101913.00
2022-10-11T09:46:41.219Z,101905.06
2022-10-11T09:49:12.376Z,101915.22
2022-10-11T09:51:42.108Z,101909.47
2022-10-11T09:54:10.771Z,101922.09
2022-10-11T09:56:43.190Z,101926.41
2022-10-11T09:59:26.049Z,101921.75
2022-10-11T10:02:23.134Z,101929.78
2022-10-11T10:05:03.418Z,101923.03
2022-10-11T10:07:33.025Z,101925.34
2022-10-11T10:10:21.143Z,101923.88
2022-10-11T10:12:55.216Z,101912.19
2022-10-11T10:15:24.927Z,101935.84
2022-10-11T10:17:54.459Z,101929.59
2022-10-11T10:20:24.988Z,101928.31
2022-10-11T10:22:53.372Z,101914.22
2022-10-11T10:25:25.569Z,101913.06
2022-10-11T10:28:01.089Z,101916.59
2022-10-11T10:30:33.173Z,101923.88
2022-10-11T10:33:08.615Z,101918.75
2022-10-11T10:35:42.591Z,101915.44
2022-10-11T10:38:16.532Z,101921.28
2022-10-11T10:40:48.080Z,101920.00
2022-10-11T10:43:18.225Z,101921.44
2022-10-11T10:46:10.909Z,101914.69
2022-10-11T10:49:28.405Z,101917.31
2022-10-11T10:51:45.528Z,101914.16
2022-10-11T10:54:22.379Z,101917.56
2022-10-11T10:56:53.943Z,101914.66
2022-10-11T10:59:41.720Z,101914.47
2022-10-11T11:02:39.207Z,101912.81
2022-10-11T11:05:22.017Z,101914.69
2022-10-11T11:07:55.499Z,101921.63
2022-10-11T11:10:26.433Z,101914.50
2022-10-11T11:13:06.855Z,101910.19
2022-10-11T11:15:39.996Z,101910.97
2022-10-11T11:18:25.862Z,101905.78
2022-10-11T11:21:10.970Z,101903.19
2022-10-11T11:23:47.328Z,101905.50
2022-10-11T11:26:23.248Z,101907.13
2022-10-11T11:29:04.253Z,101891.66
2022-10-11T11:31:55.632Z,101892.84
2022-10-11T11:34:26.891Z,101892.09
2022-10-11T11:37:01.149Z,101887.56
2022-10-11T11:39:37.239Z,101884.84
2022-10-11T11:42:11.514Z,101880.88
2022-10-11T11:44:46.971Z,101869.13
2022-10-11T11:47:19.609Z,101868.06
2022-10-11T11:49:50.452Z,101875.19
2022-10-11T11:52:27.257Z,101870.47
2022-10-11T11:55:04.228Z,101867.47
2022-10-11T11:57:47.249Z,101865.31
2022-10-11T12:00:18.795Z,101866.16
2022-10-11T12:02:51.400Z,101861.91
2022-10-11T12:05:25.951Z,101861.31
2022-10-11T12:07:59.385Z,101852.97
2022-10-11T12:10:36.138Z,101850.94
2022-10-11T12:13:09.373Z,101850.06
2022-10-11T12:15:37.508Z,101846.56
2022-10-11T12:18:15.298Z,101849.22
2022-10-11T12:20:45.038Z,101848.38
2022-10-11T12:23:49.443Z,101846.56
2022-10-11T12:26:46.905Z,101845.38
2022-10-11T12:29:48.921Z,101843.69
2022-10-11T12:32:51.777Z,101838.38
2022-10-11T12:36:04.071Z,101836.56
2022-10-11T12:38:37.706Z,101822.44
2022-10-11T12:41:35.179Z,101827.75
2022-10-11T12:44:21.904Z,101819.06
2022-10-11T12:47:27.521Z,101816.53
2022-10-11T12:50:07.527Z,101806.75
2022-10-11T12:52:55.027Z,101812.66
2022-10-11T12:55:36.015Z,101812.53
2022-10-11T12:58:25.203Z,101814.25
2022-10-11T13:01:27.092Z,101803.13
2022-10-11T13:04:01.317Z,101809.88
2022-10-11T13:06:33.252Z,101803.22
2022-10-11T13:09:06.286Z,101796.38
2022-10-11T13:11:37.573Z,101792.88
2022-10-11T13:14:12.655Z,101799.50
2022-10-11T13:16:50.978Z,101800.22
2022-10-11T13:19:23.489Z,101794.16
2022-10-11T13:21:54.365Z,101788.88
2022-10-11T13:24:23.726Z,101788.22
2022-10-11T13:26:55.590Z,101785.94
2022-10-11T13:29:32.380Z,101784.22
2022-10-11T13:32:03.378Z,101785.25
2022-10-11T13:34:35.375Z,101782.47
2022-10-11T13:37:03.550Z,101784.88
2022-10-11T13:39:35.008Z,101786.94
2022-10-11T13:42:06.742Z,101785.00
2022-10-11T13:44:36.911Z,101779.69
2022-10-11T13:47:06.714Z,101785.84
2022-10-11T13:49:39.715Z,101782.47
2022-10-11T13:52:21.847Z,101777.63
2022-10-11T13:54:57.400Z,101772.25
2022-10-11T13:57:35.762Z,101771.50
2022-10-11T14:00:08.465Z,101763.91
2022-10-11T14:02:47.227Z,101766.44
2022-10-11T14:05:24.362Z,101768.25
2022-10-11T14:07:52.399Z,101772.00
2022-10-11T14:10:22.408Z,101769.47
2022-10-11T14:13:01.146Z,101764.41
2022-10-11T14:15:31.881Z,101757.16
2022-10-11T14:18:02.230Z,101757.88
2022-10-11T14:20:38.815Z,101753.28
2022-10-11T14:23:07.422Z,101752.31
2022-10-11T14:25:35.537Z,101751.59
2022-10-11T14:28:05.650Z,101745.44
2022-10-11T14:30:33.775Z,101749.06
2022-10-11T14:33:03.451Z,101749.91
2022-10-11T14:35:35.419Z,101738.44
2022-10-11T14:38:03.130Z,101739.28
2022-10-11T14:40:32.181Z,101745.31
2022-10-11T14:42:59.987Z,101746.41
2022-10-11T14:45:27.813Z,101744.84
2022-10-11T14:47:56.740Z,101739.41
2022-10-11T14:50:35.760Z,101737.81
2022-10-11T14:53:04.036Z,101744.72
2022-10-11T14:55:32.064Z,101742.91
2022-10-11T14:57:59.808Z,101744.72
2022-10-11T15:00:29.872Z,101744.59
2022-10-11T15:02:57.687Z,101737.81
2022-10-11T15:05:33.850Z,101735.06
2022-10-11T15:08:02.182Z,101724.94
2022-10-11T15:10:34.738Z,101725.53
2022-10-11T15:13:03.380Z,101725.53
2022-10-11T15:15:35.292Z,101723.00
2022-10-11T15:18:04.978Z,101727.72
2022-10-11T15:20:37.456Z,101721.72
2022-10-11T15:23:06.364Z,101726.66
2022-10-11T15:25:34.618Z,101731.28
2022-10-11T15:28:02.999Z,101727.88
2022-10-11T15:30:34.858Z,101722.81
2022-10-11T15:33:05.619Z,101725.97
2022-10-11T15:35:34.700Z,101720.78
2022-10-11T15:38:02.527Z,101722.59
2022-10-11T15:40:33.405Z,101714.53
2022-10-11T15:43:01.807Z,101717.06
2022-10-11T15:45:30.037Z,101716.22
2022-10-11T15:47:58.439Z,101714.78
2022-10-11T15:50:34.923Z,101715.00
2022-10-11T15:53:05.394Z,101713.34
2022-10-11T15:55:34.571Z,101709.25
2022-10-11T15:58:02.760Z,101715.66
2022-10-11T16:00:31.239Z,101711.53
2022-10-11T16:03:00.121Z,101713.56
2022-10-11T16:05:29.327Z,101716.00
2022-10-11T16:07:57.076Z,101703.22
2022-10-11T16:10:26.159Z,101707.56
2022-10-11T16:12:53.824Z,101706.22
2022-10-11T16:15:21.485Z,101708.25
2022-10-11T16:17:49.478Z,101707.78
2022-10-11T16:20:21.960Z,101702.00
2022-10-11T16:22:50.528Z,101706.72
2022-10-11T16:25:19.250Z,101709.72
2022-10-11T16:27:48.347Z,101709.25
2022-10-11T16:30:17.239Z,101709.50
2022-10-11T16:32:45.392Z,101704.41
2022-10-11T16:35:14.262Z,101704.66
2022-10-11T16:37:44.039Z,101705.88
2022-10-11T16:40:15.840Z,101703.94
2022-10-11T16:42:43.641Z,101715.50
2022-10-11T16:45:13.558Z,101714.28
2022-10-11T16:47:41.599Z,101713.44
2022-10-11T16:50:10.684Z,101721.53
2022-10-11T16:52:38.420Z,101721.25
2022-10-11T16:55:07.375Z,101717.16
2022-10-11T16:57:38.091Z,101710.41
2022-10-11T17:00:07.783Z,101709.16
2022-10-11T17:02:37.351Z,101707.22
2022-10-11T17:05:08.435Z,101718.34
2022-10-11T17:07:36.599Z,101718.56
2022-10-11T17:10:05.468Z,101713.72
2022-10-11T17:12:35.391Z,101716.84
2022-10-11T17:15:03.411Z,101697.06
2022-10-11T17:17:31.151Z,101709.34
2022-10-11T17:20:02.227Z,101702.75
2022-10-11T17:22:30.051Z,101707.03
2022-10-11T17:24:57.738Z,101706.41
2022-10-11T17:27:25.426Z,101702.06
2022-10-11T17:29:53.495Z,101703.47
2022-10-11T17:32:21.178Z,101700.81
2022-10-11T17:34:48.827Z,101698.03
2022-10-11T17:37:18.249Z,101704.16
2022-10-11T17:39:46.579Z,101701.22
2022-10-11T17:42:14.299Z,101705.66
2022-10-11T17:44:41.983Z,101702.41
2022-10-11T17:47:09.660Z,101703.59
2022-10-11T17:49:37.439Z,101701.91
2022-10-11T17:52:05.180Z,101705.22
2022-10-11T17:54:34.209Z,101705.31
2022-10-11T17:57:02.078Z,101701.50
2022-10-11T17:59:31.835Z,101701.59
2022-10-11T18:01:59.962Z,101696.38
2022-10-11T18:04:29.810Z,101707.88
2022-10-11T18:07:00.248Z,101701.88
2022-10-11T18:09:28.032Z,101700.94
2022-10-11T18:11:57.083Z,101705.38
2022-10-11T18:14:25.188Z,101694.50
2022-10-11T18:16:53.030Z,101696.94
2022-10-11T18:19:20.927Z,101695.34
2022-10-11T18:21:48.603Z,101692.72
2022-10-11T18:24:17.438Z,101692.59
2022-10-11T18:26:47.798Z,101698.84
2022-10-11T18:29:16.999Z,101676.63
2022-10-11T18:31:44.788Z,101688.69
2022-10-11T18:34:15.708Z,101695.28
2022-10-11T18:36:43.928Z,101692.50
2022-10-11T18:39:15.301Z,101693.25
2022-10-11T18:41:44.471Z,101684.06
2022-10-11T18:44:14.939Z,101699.84
2022-10-11T18:46:44.687Z,101692.97
2022-10-11T18:49:15.835Z,101696.56
2022-10-11T18:51:45.714Z,101702.28
2022-10-11T18:54:16.834Z,101688.56
2022-10-11T18:56:48.205Z,101699.56
2022-10-11T18:59:16.087Z,101697.88
2022-10-11T19:01:45.698Z,101697.88
2022-10-11T19:04:15.753Z,101699.03
2022-10-11T19:06:47.313Z,101701.69
2022-10-11T19:09:17.662Z,101668.38
2022-10-11T19:11:45.616Z,101700.63
2022-10-11T19:14:15.296Z,101696.09
2022-10-11T19:16:49.156Z,101701.06
2022-10-11T19:19:18.023Z,101689.03
2022-10-11T19:21:48.543Z,101697.34
2022-10-11T19:24:16.488Z,101690.47
2022-10-11T19:26:44.219Z,101702.66
2022-10-11T19:29:14.615Z,101696.50
2022-10-11T19:31:44.502Z,101697.06
2022-10-11T19:34:13.785Z,101695.47
2022-10-11T19:36:42.815Z,101695.69
2022-10-11T19:39:14.101Z,101692.28
2022-10-11T19:41:42.362Z,101690.06
2022-10-11T19:44:10.151Z,101692.59
2022-10-11T19:46:51.136Z,101696.19
2022-10-11T19:49:23.807Z,101700.63
2022-10-11T19:51:52.031Z,101695.56
2022-10-11T19:54:19.929Z,101695.75
2022-10-11T19:56:48.311Z,101691.31
2022-10-11T19:59:16.860Z,101697.66
2022-10-11T20:01:49.323Z,101687.53
2022-10-11T20:04:50.572Z,101699.78
2022-10-11T20:07:09.911Z,101699.44
2022-10-11T20:09:37.724Z,101704.00
2022-10-11T20:12:05.630Z,101699.84
2022-10-11T20:14:33.341Z,101699.34
2022-10-11T20:17:01.065Z,101683.91
2022-10-11T20:19:31.271Z,101701.69
2022-10-11T20:21:59.672Z,101699.25
2022-10-11T20:24:28.939Z,101694.25
2022-10-11T20:26:56.814Z,101697.66
2022-10-11T20:29:25.225Z,101685.03
2022-10-11T20:31:53.238Z,101690.88
2022-10-11T20:34:20.974Z,101697.31
2022-10-11T20:36:49.988Z,101689.63
2022-10-11T20:39:17.962Z,101682.00
2022-10-11T20:41:46.150Z,101688.75
2022-10-11T20:44:15.983Z,101683.47
2022-10-11T20:46:43.709Z,101688.88
2022-10-11T20:49:13.209Z,101671.31
2022-10-11T20:51:42.615Z,101689.16
2022-10-11T20:54:12.574Z,101691.91
2022-10-11T20:56:40.718Z,101689.38
2022-10-11T20:59:08.935Z,101698.22
2022-10-11T21:01:38.732Z,101684.81
2022-10-11T21:04:08.218Z,101698.66
2022-10-11T21:06:35.996Z,101694.44
2022-10-11T21:09:04.540Z,101694.44
2022-10-11T21:11:35.098Z,101690.19
2022-10-11T21:14:05.355Z,101693.56
2022-10-11T21:16:33.543Z,101697.16
2022-10-11T21:19:02.808Z,101688.06
2022-10-11T21:21:31.318Z,101686.16
2022-10-11T21:24:00.622Z,101689.53
2022-10-11T21:26:32.583Z,101677.06
2022-10-11T21:29:05.100Z,101682.78
2022-10-11T21:31:34.366Z,101683.00
2022-10-11T21:34:02.582Z,101677.06
2022-10-11T21:36:30.340Z,101680.53
2022-10-11T21:38:58.270Z,101675.34
2022-10-11T21:41:30.088Z,101667.84
2022-10-11T21:43:59.132Z,101670.47
2022-10-11T21:47:01.206Z,101660.25
2022-10-11T21:49:19.159Z,101671.56
2022-10-11T21:51:49.947Z,101676.59
2022-10-11T21:54:18.050Z,101677.78
2022-10-11T21:56:45.787Z,101680.19
2022-10-11T21:59:14.179Z,101677.03
2022-10-11T22:01:46.506Z,101658.84
2022-10-11T22:04:14.307Z,101676.28
2022-10-11T22:06:42.337Z,101661.78
2022-10-11T22:09:10.489Z,101665.72
2022-10-11T22:11:38.596Z,101675.31
2022-10-11T22:14:06.561Z,101673.44
2022-10-11T22:16:35.078Z,101675.31
2022-10-11T22:19:04.642Z,101677.88
2022-10-11T22:21:32.510Z,101675.31
2022-10-11T22:24:00.607Z,101678.91
2022-10-11T22:26:30.981Z,101674.88
2022-10-11T22:29:00.133Z,101678.91
2022-10-11T22:31:29.570Z,101687.78
2022-10-11T22:33:59.703Z,101681.75
2022-10-11T22:36:30.383Z,101672.31
2022-10-11T22:38:58.550Z,101679.09
2022-10-11T22:41:26.262Z,101679.94
2022-10-11T22:43:53.974Z,101683.09
2022-10-11T22:46:21.651Z,101685.75
2022-10-11T22:48:49.364Z,101687.44
2022-10-11T22:51:17.079Z,101683.69
2022-10-11T22:53:46.248Z,101686.41
2022-10-11T22:56:14.075Z,101684.72
2022-10-11T22:58:41.786Z,101676.19
2022-10-11T23:01:11.154Z,101682.78
2022-10-11T23:03:39.150Z,101673.72
2022-10-11T23:06:07.053Z,101672.88
2022-10-11T23:08:34.874Z,101669.88
2022-10-11T23:11:08.670Z,101675.06
2022-10-11T23:13:36.734Z,101672.59
2022-10-11T23:16:08.663Z,101679.91
2022-10-11T23:18:36.908Z,101685.16
2022-10-11T23:21:05.953Z,101678.19
2022-10-11T23:23:34.194Z,101686.66
2022-10-11T23:26:03.689Z,101686.56
2022-10-11T23:28:32.915Z,101689.28
2022-10-11T23:31:01.535Z,101685.78
2022-10-11T23:33:30.066Z,101687.16
2022-10-11T23:35:57.820Z,101668.78
2022-10-11T23:38:27.976Z,101672.34
2022-10-11T23:40:55.788Z,101667.94
2022-10-11T23:43:23.757Z,101674.16
2022-10-11T23:45:54.888Z,101674.44
2022-10-11T23:48:22.616Z,101675.09
2022-10-11T23:50:50.528Z,101671.91
2022-10-11T23:53:18.348Z,101662.56
2022-10-11T23:55:46.094Z,101679.06
2022-10-11T23:58:13.801Z,101679.06
